sensor_id;sensor_type;location;lat;lon;timestamp;pressure;altitude;pressure_sealevel;temperature;humidity
63405;BME280;49541;57.840;12.306;2024-01-15T00:02:34;97211.25;;;1.34;100.00
63405;BME280;49541;57.840;12.306;2024-01-15T00:07:35;97212.56;;;1.30;100.00
63405;BME280;49541;57.840;12.306;2024-01-15T00:12:35;97207.69;;;1.43;100.00
63405;BME280;49541;57.840;12.306;2024-01-15T00:17:37;97198.03;;;1.94;100.00
63405;BME280;49541;57.840;12.306;2024-01-15T00:22:37;97192.94;;;1.93;100.00
63405;BME280;49541;57.840;12.306;2024-01-15T00:27:37;97185.78;;;2.28;100.00
63405;BME280;49541;57.840;12.306;2024-01-15T00:32:38;97181.81;;;2.07;100.00
63405;BME280;49541;57.840;12.306;2024-01-15T00:37:38;97165.91;;;2.66;100.00
63405;BME280;49541;57.840;12.306;2024-01-15T00:42:38;97155.41;;;2.58;100.00
63405;BME280;49541;57.840;12.306;2024-01-15T00:47:38;97142.28;;;2.66;100.00
63405;BME280;49541;57.840;12.306;2024-01-15T00:52:39;97142.94;;;2.19;100.00
63405;BME280;49541;57.840;12.306;2024-01-15T00:57:39;97147.56;;;2.41;100.00
63405;BME280;49541;57.840;12.306;2024-01-15T01:02:39;97139.66;;;2.17;100.00
63405;BME280;49541;57.840;12.306;2024-01-15T01:07:40;97127.84;;;2.13;100.00
63405;BME280;49541;57.840;12.306;2024-01-15T01:12:40;97130.41;;;1.55;100.00
63405;BME280;49541;57.840;12.306;2024-01-15T01:17:40;97148.91;;;1.11;100.00
63405;BME280;49541;57.840;12.306;2024-01-15T01:22:41;97147.53;;;0.99;100.00
63405;BME280;49541;57.840;12.306;2024-01-15T01:27:41;97148.66;;;1.31;100.00
63405;BME280;49541;57.840;12.306;2024-01-15T01:32:41;97142.22;;;1.68;100.00
63405;BME280;49541;57.840;12.306;2024-01-15T01:37:42;97127.25;;;1.43;100.00
63405;BME280;49541;57.840;12.306;2024-01-15T01:42:42;97127.00;;;1.79;100.00
63405;BME280;49541;57.840;12.306;2024-01-15T01:47:42;97135.38;;;1.75;100.00
63405;BME280;49541;57.840;12.306;2024-01-15T01:52:43;97131.47;;;0.94;100.00
63405;BME280;49541;57.840;12.306;2024-01-15T01:57:44;97146.00;;;0.62;100.00
63405;BME280;49541;57.840;12.306;2024-01-15T02:02:44;97139.41;;;0.32;100.00
63405;BME280;49541;57.840;12.306;2024-01-15T02:07:45;97154.59;;;0.10;100.00
63405;BME280;49541;57.840;12.306;2024-01-15T02:12:45;97161.25;;;-0.31;100.00
63405;BME280;49541;57.840;12.306;2024-01-15T02:18:01;97176.13;;;-0.14;100.00
63405;BME280;49541;57.840;12.306;2024-01-15T02:23:08;97184.50;;;-0.56;100.00
63405;BME280;49541;57.840;12.306;2024-01-15T02:28:11;97192.03;;;-0.80;100.00
63405;BME280;49541;57.840;12.306;2024-01-15T02:33:11;97200.84;;;-1.29;100.00
63405;BME280;49541;57.840;12.306;2024-01-15T02:38:12;97213.63;;;-1.45;100.00
63405;BME280;49541;57.840;12.306;2024-01-15T02:43:12;97216.25;;;-1.65;100.00
63405;BME280;49541;57.840;12.306;2024-01-15T02:48:13;97227.91;;;-1.49;100.00
63405;BME280;49541;57.840;12.306;2024-01-15T02:53:14;97230.13;;;-1.64;100.00
63405;BME280;49541;57.840;12.306;2024-01-15T02:58:14;97242.91;;;-1.61;100.00
63405;BME280;49541;57.840;12.306;2024-01-15T03:03:14;97244.66;;;-1.81;100.00
63405;BME280;49541;57.840;12.306;2024-01-15T03:08:15;97255.63;;;-1.97;100.00
63405;BME280;49541;57.840;12.306;2024-01-15T03:13:15;97267.84;;;-1.97;100.00
63405;BME280;49541;57.840;12.306;2024-01-15T03:18:16;97269.03;;;-2.21;100.00
63405;BME280;49541;57.840;12.306;2024-01-15T03:23:16;97286.34;;;-2.51;100.00
63405;BME280;49541;57.840;12.306;2024-01-15T03:28:17;97286.16;;;-2.59;100.00
63405;BME280;49541;57.840;12.306;2024-01-15T03:33:19;97307.19;;;-2.81;100.00
63405;BME280;49541;57.840;12.306;2024-01-15T03:38:19;97311.00;;;-2.85;100.00
63405;BME280;49541;57.840;12.306;2024-01-15T03:43:19;97318.72;;;-3.16;100.00
63405;BME280;49541;57.840;12.306;2024-01-15T03:48:20;97333.34;;;-3.04;100.00
63405;BME280;49541;57.840;12.306;2024-01-15T03:53:20;97347.34;;;-3.16;100.00
63405;BME280;49541;57.840;12.306;2024-01-15T03:58:20;97363.28;;;-3.31;100.00
63405;BME280;49541;57.840;12.306;2024-01-15T04:03:21;97363.28;;;-3.31;100.00
63405;BME280;49541;57.840;12.306;2024-01-15T04:08:21;97372.69;;;-3.18;100.00
63405;BME280;49541;57.840;12.306;2024-01-15T04:13:21;97401.78;;;-3.13;100.00
63405;BME280;49541;57.840;12.306;2024-01-15T04:18:22;97409.38;;;-3.21;100.00
63405;BME280;49541;57.840;12.306;2024-01-15T04:23:22;97424.66;;;-3.28;100.00
63405;BME280;49541;57.840;12.306;2024-01-15T04:28:22;97439.66;;;-3.32;100.00
63405;BME280;49541;57.840;12.306;2024-01-15T04:33:22;97440.66;;;-3.44;100.00
63405;BME280;49541;57.840;12.306;2024-01-15T04:38:23;97464.56;;;-3.50;100.00
63405;BME280;49541;57.840;12.306;2024-01-15T04:43:23;97480.34;;;-3.19;100.00
63405;BME280;49541;57.840;12.306;2024-01-15T04:48:23;97486.53;;;-3.43;100.00
63405;BME280;49541;57.840;12.306;2024-01-15T04:53:23;97490.19;;;-3.45;100.00
63405;BME280;49541;57.840;12.306;2024-01-15T04:58:23;97499.28;;;-3.51;100.00
63405;BME280;49541;57.840;12.306;2024-01-15T05:03:26;97521.06;;;-3.52;100.00
63405;BME280;49541;57.840;12.306;2024-01-15T05:08:26;97527.19;;;-3.31;100.00
63405;BME280;49541;57.840;12.306;2024-01-15T05:13:27;97542.31;;;-3.36;100.00
63405;BME280;49541;57.840;12.306;2024-01-15T05:18:28;97552.25;;;-3.30;100.00
63405;BME280;49541;57.840;12.306;2024-01-15T05:23:28;97559.69;;;-3.25;100.00
63405;BME280;49541;57.840;12.306;2024-01-15T05:28:28;97570.34;;;-3.62;100.00
63405;BME280;49541;57.840;12.306;2024-01-15T05:33:29;97587.38;;;-3.69;100.00
63405;BME280;49541;57.840;12.306;2024-01-15T05:38:30;97582.72;;;-3.88;100.00
63405;BME280;49541;57.840;12.306;2024-01-15T05:43:30;97601.44;;;-3.72;100.00
63405;BME280;49541;57.840;12.306;2024-01-15T05:48:30;97619.50;;;-3.81;100.00
63405;BME280;49541;57.840;12.306;2024-01-15T05:53:32;97624.22;;;-3.86;100.00
63405;BME280;49541;57.840;12.306;2024-01-15T05:58:33;97644.44;;;-3.79;100.00
63405;BME280;49541;57.840;12.306;2024-01-15T06:03:33;97647.19;;;-3.58;100.00
63405;BME280;49541;57.840;12.306;2024-01-15T06:08:34;97660.19;;;-3.69;100.00
63405;BME280;49541;57.840;12.306;2024-01-15T06:13:34;97669.06;;;-3.60;100.00
63405;BME280;49541;57.840;12.306;2024-01-15T06:18:35;97676.63;;;-3.68;100.00
63405;BME280;49541;57.840;12.306;2024-01-15T06:23:36;97688.63;;;-3.43;100.00
63405;BME280;49541;57.840;12.306;2024-01-15T06:28:37;97711.13;;;-4.02;100.00
63405;BME280;49541;57.840;12.306;2024-01-15T06:33:37;97720.84;;;-3.93;100.00
63405;BME280;49541;57.840;12.306;2024-01-15T06:38:38;97733.13;;;-3.95;100.00
63405;BME280;49541;57.840;12.306;2024-01-15T06:43:38;97751.09;;;-3.67;100.00
63405;BME280;49541;57.840;12.306;2024-01-15T06:48:38;97760.91;;;-4.19;100.00
63405;BME280;49541;57.840;12.306;2024-01-15T06:53:38;97786.56;;;-3.91;100.00
63405;BME280;49541;57.840;12.306;2024-01-15T06:58:39;97798.50;;;-3.88;100.00
63405;BME280;49541;57.840;12.306;2024-01-15T07:03:40;97817.88;;;-3.92;100.00
63405;BME280;49541;57.840;12.306;2024-01-15T07:08:43;97828.59;;;-3.97;100.00
63405;BME280;49541;57.840;12.306;2024-01-15T07:13:44;97854.41;;;-4.06;100.00
63405;BME280;49541;57.840;12.306;2024-01-15T07:18:45;97856.84;;;-3.92;100.00
63405;BME280;49541;57.840;12.306;2024-01-15T07:23:45;97873.22;;;-4.16;100.00
63405;BME280;49541;57.840;12.306;2024-01-15T07:28:46;97883.22;;;-4.22;100.00
63405;BME280;49541;57.840;12.306;2024-01-15T07:33:46;97890.63;;;-4.42;100.00
63405;BME280;49541;57.840;12.306;2024-01-15T07:38:46;97902.69;;;-4.41;100.00
63405;BME280;49541;57.840;12.306;2024-01-15T07:43:47;97920.41;;;-4.09;100.00
63405;BME280;49541;57.840;12.306;2024-01-15T07:48:47;97917.41;;;-4.28;100.00
63405;BME280;49541;57.840;12.306;2024-01-15T07:53:48;97952.47;;;-4.34;100.00
63405;BME280;49541;57.840;12.306;2024-01-15T07:58:48;97963.88;;;-4.37;100.00
63405;BME280;49541;57.840;12.306;2024-01-15T08:03:49;97965.00;;;-4.54;100.00
63405;BME280;49541;57.840;12.306;2024-01-15T08:08:50;97982.66;;;-4.46;100.00
63405;BME280;49541;57.840;12.306;2024-01-15T08:13:50;97994.13;;;-4.36;100.00
63405;BME280;49541;57.840;12.306;2024-01-15T08:18:50;98006.41;;;-4.25;100.00
63405;BME280;49541;57.840;12.306;2024-01-15T08:23:50;98024.63;;;-4.52;100.00
63405;BME280;49541;57.840;12.306;2024-01-15T08:28:50;98030.00;;;-4.68;100.00
63405;BME280;49541;57.840;12.306;2024-01-15T08:33:52;98037.97;;;-4.31;100.00
63405;BME280;49541;57.840;12.306;2024-01-15T08:38:52;98036.41;;;-4.34;100.00
63405;BME280;49541;57.840;12.306;2024-01-15T08:43:53;98039.69;;;-4.57;100.00
63405;BME280;49541;57.840;12.306;2024-01-15T08:48:53;98049.88;;;-3.88;100.00
63405;BME280;49541;57.840;12.306;2024-01-15T08:53:53;98070.88;;;-3.92;100.00
63405;BME280;49541;57.840;12.306;2024-01-15T08:58:54;98070.75;;;-4.16;100.00
63405;BME280;49541;57.840;12.306;2024-01-15T09:03:54;98079.38;;;-4.28;100.00
63405;BME280;49541;57.840;12.306;2024-01-15T09:08:54;98075.88;;;-4.41;100.00
63405;BME280;49541;57.840;12.306;2024-01-15T09:13:54;98077.28;;;-4.23;100.00
63405;BME280;49541;57.840;12.306;2024-01-15T09:18:55;98083.88;;;-4.44;100.00
63405;BME280;49541;57.840;12.306;2024-01-15T09:23:57;98107.22;;;-4.30;100.00
63405;BME280;49541;57.840;12.306;2024-01-15T09:28:58;98112.50;;;-4.59;100.00
63405;BME280;49541;57.840;12.306;2024-01-15T09:33:58;98115.63;;;-4.26;100.00
63405;BME280;49541;57.840;12.306;2024-01-15T09:39:00;98137.00;;;-4.08;100.00
63405;BME280;49541;57.840;12.306;2024-01-15T09:44:00;98143.38;;;-4.27;100.00
63405;BME280;49541;57.840;12.306;2024-01-15T09:49:02;98138.63;;;-4.20;100.00
63405;BME280;49541;57.840;12.306;2024-01-15T09:54:02;98143.91;;;-3.82;100.00
63405;BME280;49541;57.840;12.306;2024-01-15T09:59:04;98155.75;;;-3.91;100.00
63405;BME280;49541;57.840;12.306;2024-01-15T10:04:04;98153.06;;;-3.89;100.00
63405;BME280;49541;57.840;12.306;2024-01-15T10:09:05;98169.06;;;-3.95;100.00
63405;BME280;49541;57.840;12.306;2024-01-15T10:14:08;98184.81;;;-3.98;100.00
63405;BME280;49541;57.840;12.306;2024-01-15T10:19:12;98188.56;;;-3.62;100.00
63405;BME280;49541;57.840;12.306;2024-01-15T10:24:13;98199.59;;;-3.59;100.00
63405;BME280;49541;57.840;12.306;2024-01-15T10:29:14;98207.50;;;-4.00;100.00
63405;BME280;49541;57.840;12.306;2024-01-15T10:34:14;98210.66;;;-3.95;100.00
63405;BME280;49541;57.840;12.306;2024-01-15T10:39:15;98204.19;;;-4.29;100.00
63405;BME280;49541;57.840;12.306;2024-01-15T10:44:16;98223.41;;;-4.46;100.00
63405;BME280;49541;57.840;12.306;2024-01-15T10:49:16;98236.41;;;-4.46;100.00
63405;BME280;49541;57.840;12.306;2024-01-15T10:54:19;98244.56;;;-4.38;100.00
63405;BME280;49541;57.840;12.306;2024-01-15T10:59:20;98241.66;;;-4.75;100.00
63405;BME280;49541;57.840;12.306;2024-01-15T11:04:20;98252.41;;;-4.96;100.00
63405;BME280;49541;57.840;12.306;2024-01-15T11:09:21;98272.34;;;-4.82;100.00
63405;BME280;49541;57.840;12.306;2024-01-15T11:19:54;98306.75;;;-4.64;100.00
63405;BME280;49541;57.840;12.306;2024-01-15T11:25:02;98307.00;;;-4.97;100.00
63405;BME280;49541;57.840;12.306;2024-01-15T11:30:03;98306.66;;;-4.62;100.00
63405;BME280;49541;57.840;12.306;2024-01-15T11:35:04;98296.25;;;-4.48;100.00
63405;BME280;49541;57.840;12.306;2024-01-15T11:40:06;98294.88;;;-4.68;100.00
63405;BME280;49541;57.840;12.306;2024-01-15T11:45:11;98279.16;;;-3.96;100.00
63405;BME280;49541;57.840;12.306;2024-01-15T11:50:11;98296.69;;;-3.58;100.00
63405;BME280;49541;57.840;12.306;2024-01-15T11:55:14;98305.22;;;-3.56;100.00
63405;BME280;49541;57.840;12.306;2024-01-15T12:00:17;98312.28;;;-3.58;100.00
63405;BME280;49541;57.840;12.306;2024-01-15T12:05:18;98316.88;;;-3.49;100.00
63405;BME280;49541;57.840;12.306;2024-01-15T12:10:19;98335.53;;;-3.42;100.00
63405;BME280;49541;57.840;12.306;2024-01-15T12:15:20;98345.66;;;-3.65;100.00
63405;BME280;49541;57.840;12.306;2024-01-15T12:20:20;98335.78;;;-3.87;100.00
63405;BME280;49541;57.840;12.306;2024-01-15T12:25:21;98337.31;;;-3.97;100.00
63405;BME280;49541;57.840;12.306;2024-01-15T12:30:21;98349.22;;;-4.50;100.00
63405;BME280;49541;57.840;12.306;2024-01-15T12:35:23;98350.59;;;-4.74;100.00
63405;BME280;49541;57.840;12.306;2024-01-15T12:40:23;98368.34;;;-4.51;100.00
63405;BME280;49541;57.840;12.306;2024-01-15T12:45:24;98379.94;;;-4.28;100.00
63405;BME280;49541;57.840;12.306;2024-01-15T12:50:24;98383.41;;;-4.87;100.00
63405;BME280;49541;57.840;12.306;2024-01-15T12:55:25;98387.25;;;-5.08;100.00
63405;BME280;49541;57.840;12.306;2024-01-15T13:00:26;98408.88;;;-4.94;100.00
63405;BME280;49541;57.840;12.306;2024-01-15T13:05:26;98417.69;;;-5.42;100.00
63405;BME280;49541;57.840;12.306;2024-01-15T13:10:27;98430.16;;;-5.33;100.00
63405;BME280;49541;57.840;12.306;2024-01-15T13:15:30;98425.88;;;-5.34;100.00
63405;BME280;49541;57.840;12.306;2024-01-15T13:20:31;98439.50;;;-5.15;100.00
63405;BME280;49541;57.840;12.306;2024-01-15T13:25:33;98443.69;;;-5.28;100.00
63405;BME280;49541;57.840;12.306;2024-01-15T13:30:38;98451.03;;;-4.74;100.00
63405;BME280;49541;57.840;12.306;2024-01-15T13:35:38;98458.03;;;-4.90;100.00
63405;BME280;49541;57.840;12.306;2024-01-15T13:40:38;98472.41;;;-5.15;100.00
63405;BME280;49541;57.840;12.306;2024-01-15T13:45:38;98480.44;;;-5.20;100.00
63405;BME280;49541;57.840;12.306;2024-01-15T13:50:39;98492.00;;;-5.09;100.00
63405;BME280;49541;57.840;12.306;2024-01-15T13:55:40;98508.97;;;-5.04;100.00
63405;BME280;49541;57.840;12.306;2024-01-15T14:00:40;98514.41;;;-4.92;100.00
63405;BME280;49541;57.840;12.306;2024-01-15T14:05:41;98524.88;;;-5.10;100.00
63405;BME280;49541;57.840;12.306;2024-01-15T14:10:41;98526.03;;;-5.31;100.00
63405;BME280;49541;57.840;12.306;2024-01-15T14:15:41;98527.63;;;-4.81;100.00
63405;BME280;49541;57.840;12.306;2024-01-15T14:20:41;98534.81;;;-4.70;100.00
63405;BME280;49541;57.840;12.306;2024-01-15T14:25:43;98552.81;;;-4.99;100.00
63405;BME280;49541;57.840;12.306;2024-01-15T14:30:44;98560.13;;;-5.06;100.00
63405;BME280;49541;57.840;12.306;2024-01-15T14:35:44;98569.50;;;-4.87;100.00
63405;BME280;49541;57.840;12.306;2024-01-15T14:40:44;98570.78;;;-4.95;100.00
63405;BME280;49541;57.840;12.306;2024-01-15T14:45:44;98592.75;;;-5.33;100.00
63405;BME280;49541;57.840;12.306;2024-01-15T14:50:45;98591.06;;;-5.50;100.00
63405;BME280;49541;57.840;12.306;2024-01-15T14:55:45;98598.19;;;-5.71;100.00
63405;BME280;49541;57.840;12.306;2024-01-15T15:00:45;98607.16;;;-5.28;100.00
63405;BME280;49541;57.840;12.306;2024-01-15T15:05:46;98621.06;;;-5.29;100.00
63405;BME280;49541;57.840;12.306;2024-01-15T15:10:46;98612.69;;;-5.67;100.00
63405;BME280;49541;57.840;12.306;2024-01-15T15:15:46;98625.56;;;-5.66;100.00
63405;BME280;49541;57.840;12.306;2024-01-15T15:20:49;98640.44;;;-5.69;100.00
63405;BME280;49541;57.840;12.306;2024-01-15T15:25:50;98650.19;;;-5.74;100.00
63405;BME280;49541;57.840;12.306;2024-01-15T15:30:50;98662.00;;;-6.02;100.00
63405;BME280;49541;57.840;12.306;2024-01-15T15:35:51;98670.38;;;-5.97;100.00
63405;BME280;49541;57.840;12.306;2024-01-15T15:40:51;98668.31;;;-6.08;100.00
63405;BME280;49541;57.840;12.306;2024-01-15T15:45:51;98674.47;;;-5.93;100.00
63405;BME280;49541;57.840;12.306;2024-01-15T15:50:52;98679.94;;;-5.82;100.00
63405;BME280;49541;57.840;12.306;2024-01-15T15:55:52;98695.38;;;-5.61;100.00
63405;BME280;49541;57.840;12.306;2024-01-15T16:00:52;98691.88;;;-5.95;100.00
63405;BME280;49541;57.840;12.306;2024-01-15T16:05:53;98702.22;;;-6.12;100.00
63405;BME280;49541;57.840;12.306;2024-01-15T16:10:53;98697.66;;;-6.44;100.00
63405;BME280;49541;57.840;12.306;2024-01-15T16:15:55;98697.41;;;-6.56;100.00
63405;BME280;49541;57.840;12.306;2024-01-15T16:20:55;98696.28;;;-6.51;100.00
63405;BME280;49541;57.840;12.306;2024-01-15T16:25:55;98709.28;;;-6.33;100.00
63405;BME280;49541;57.840;12.306;2024-01-15T16:30:56;98720.72;;;-6.20;100.00
63405;BME280;49541;57.840;12.306;2024-01-15T16:35:56;98729.03;;;-6.13;100.00
63405;BME280;49541;57.840;12.306;2024-01-15T16:40:57;98726.31;;;-6.10;100.00
63405;BME280;49541;57.840;12.306;2024-01-15T16:45:57;98732.84;;;-6.21;100.00
63405;BME280;49541;57.840;12.306;2024-01-15T16:50:58;98747.63;;;-6.23;100.00
63405;BME280;49541;57.840;12.306;2024-01-15T16:55:58;98759.47;;;-5.82;100.00
63405;BME280;49541;57.840;12.306;2024-01-15T17:00:58;98762.06;;;-5.82;100.00
63405;BME280;49541;57.840;12.306;2024-01-15T17:05:58;98777.25;;;-6.47;100.00
63405;BME280;49541;57.840;12.306;2024-01-15T17:10:59;98777.72;;;-6.39;100.00
63405;BME280;49541;57.840;12.306;2024-01-15T17:15:59;98782.94;;;-6.97;100.00
63405;BME280;49541;57.840;12.306;2024-01-15T17:20:59;98785.03;;;-7.26;100.00
63405;BME280;49541;57.840;12.306;2024-01-15T17:26:00;98785.56;;;-7.18;100.00
63405;BME280;49541;57.840;12.306;2024-01-15T17:31:00;98785.41;;;-6.75;100.00
63405;BME280;49541;57.840;12.306;2024-01-15T17:36:00;98789.97;;;-7.20;100.00
63405;BME280;49541;57.840;12.306;2024-01-15T17:41:01;98802.22;;;-7.25;100.00
63405;BME280;49541;57.840;12.306;2024-01-15T17:46:01;98801.19;;;-7.21;100.00
63405;BME280;49541;57.840;12.306;2024-01-15T17:51:03;98814.78;;;-7.36;100.00
63405;BME280;49541;57.840;12.306;2024-01-15T17:56:04;98821.13;;;-7.44;100.00
63405;BME280;49541;57.840;12.306;2024-01-15T18:01:04;98819.94;;;-7.36;100.00
63405;BME280;49541;57.840;12.306;2024-01-15T18:06:05;98829.22;;;-7.53;100.00
63405;BME280;49541;57.840;12.306;2024-01-15T18:11:06;98835.72;;;-7.43;100.00
63405;BME280;49541;57.840;12.306;2024-01-15T18:16:07;98825.66;;;-7.28;100.00
63405;BME280;49541;57.840;12.306;2024-01-15T18:21:07;98836.50;;;-7.41;100.00
63405;BME280;49541;57.840;12.306;2024-01-15T18:26:07;98847.13;;;-7.91;100.00
63405;BME280;49541;57.840;12.306;2024-01-15T18:31:07;98855.47;;;-7.84;100.00
63405;BME280;49541;57.840;12.306;2024-01-15T18:36:07;98859.75;;;-8.07;100.00
63405;BME280;49541;57.840;12.306;2024-01-15T18:41:08;98862.72;;;-7.94;100.00
63405;BME280;49541;57.840;12.306;2024-01-15T18:46:08;98875.06;;;-8.24;100.00
63405;BME280;49541;57.840;12.306;2024-01-15T18:51:08;98886.38;;;-8.50;100.00
63405;BME280;49541;57.840;12.306;2024-01-15T18:56:08;98893.91;;;-8.44;100.00
63405;BME280;49541;57.840;12.306;2024-01-15T19:01:09;98892.75;;;-8.60;100.00
63405;BME280;49541;57.840;12.306;2024-01-15T19:06:10;98897.13;;;-8.86;100.00
63405;BME280;49541;57.840;12.306;2024-01-15T19:11:12;98895.47;;;-8.63;100.00
63405;BME280;49541;57.840;12.306;2024-01-15T19:16:14;98907.88;;;-9.00;100.00
63405;BME280;49541;57.840;12.306;2024-01-15T19:21:15;98904.25;;;-8.69;100.00
63405;BME280;49541;57.840;12.306;2024-01-15T19:26:19;98915.66;;;-9.01;100.00
63405;BME280;49541;57.840;12.306;2024-01-15T19:31:19;98926.25;;;-8.84;100.00
63405;BME280;49541;57.840;12.306;2024-01-15T19:36:23;98923.84;;;-8.63;100.00
63405;BME280;49541;57.840;12.306;2024-01-15T19:41:23;98931.84;;;-9.23;100.00
63405;BME280;49541;57.840;12.306;2024-01-15T19:46:24;98944.53;;;-9.43;100.00
63405;BME280;49541;57.840;12.306;2024-01-15T19:51:24;98955.47;;;-9.09;100.00
63405;BME280;49541;57.840;12.306;2024-01-15T19:56:24;98953.41;;;-9.25;100.00
63405;BME280;49541;57.840;12.306;2024-01-15T20:01:24;98969.16;;;-9.33;100.00
63405;BME280;49541;57.840;12.306;2024-01-15T20:06:25;98968.75;;;-9.77;100.00
63405;BME280;49541;57.840;12.306;2024-01-15T20:11:26;98968.41;;;-9.65;100.00
63405;BME280;49541;57.840;12.306;2024-01-15T20:16:26;98973.88;;;-9.76;100.00
63405;BME280;49541;57.840;12.306;2024-01-15T20:21:26;98966.81;;;-9.99;100.00
63405;BME280;49541;57.840;12.306;2024-01-15T20:26:26;98969.16;;;-10.21;100.00
63405;BME280;49541;57.840;12.306;2024-01-15T20:31:27;98973.88;;;-10.37;100.00
63405;BME280;49541;57.840;12.306;2024-01-15T20:36:28;98968.84;;;-9.80;100.00
63405;BME280;49541;57.840;12.306;2024-01-15T20:41:28;98974.13;;;-10.15;100.00
63405;BME280;49541;57.840;12.306;2024-01-15T20:46:28;99003.81;;;-10.33;100.00
63405;BME280;49541;57.840;12.306;2024-01-15T20:51:30;99006.16;;;-10.25;100.00
63405;BME280;49541;57.840;12.306;2024-01-15T20:56:30;99007.53;;;-10.43;100.00
63405;BME280;49541;57.840;12.306;2024-01-15T21:01:30;99010.84;;;-11.08;100.00
63405;BME280;49541;57.840;12.306;2024-01-15T21:06:30;99012.06;;;-10.87;100.00
63405;BME280;49541;57.840;12.306;2024-01-15T21:11:31;99013.94;;;-10.58;100.00
63405;BME280;49541;57.840;12.306;2024-01-15T21:16:31;99008.09;;;-10.99;100.00
63405;BME280;49541;57.840;12.306;2024-01-15T21:21:31;99022.88;;;-11.08;100.00
63405;BME280;49541;57.840;12.306;2024-01-15T21:26:31;99023.16;;;-11.21;100.00
63405;BME280;49541;57.840;12.306;2024-01-15T21:31:36;99021.53;;;-11.25;100.00
63405;BME280;49541;57.840;12.306;2024-01-15T21:36:37;99024.78;;;-11.17;100.00
63405;BME280;49541;57.840;12.306;2024-01-15T21:41:37;99026.94;;;-11.00;100.00
63405;BME280;49541;57.840;12.306;2024-01-15T21:46:42;99032.19;;;-11.03;100.00
63405;BME280;49541;57.840;12.306;2024-01-15T21:51:43;99041.69;;;-11.06;100.00
63405;BME280;49541;57.840;12.306;2024-01-15T21:56:44;99042.16;;;-12.07;100.00
63405;BME280;49541;57.840;12.306;2024-01-15T22:01:45;99046.81;;;-12.28;100.00
63405;BME280;49541;57.840;12.306;2024-01-15T22:06:51;99053.16;;;-11.62;100.00
63405;BME280;49541;57.840;12.306;2024-01-15T22:11:51;99071.81;;;-11.94;100.00
63405;BME280;49541;57.840;12.306;2024-01-15T22:16:51;99083.44;;;-11.76;100.00
63405;BME280;49541;57.840;12.306;2024-01-15T22:21:52;99084.47;;;-12.80;100.00
63405;BME280;49541;57.840;12.306;2024-01-15T22:26:52;99086.56;;;-12.52;100.00
63405;BME280;49541;57.840;12.306;2024-01-15T22:31:53;99089.69;;;-12.86;100.00
63405;BME280;49541;57.840;12.306;2024-01-15T22:36:53;99091.84;;;-13.15;100.00
63405;BME280;49541;57.840;12.306;2024-01-15T22:41:54;99092.00;;;-13.26;100.00
63405;BME280;49541;57.840;12.306;2024-01-15T22:46:55;99103.81;;;-13.16;100.00
63405;BME280;49541;57.840;12.306;2024-01-15T22:51:55;99104.59;;;-13.12;100.00
63405;BME280;49541;57.840;12.306;2024-01-15T22:56:56;99107.81;;;-13.60;100.00
63405;BME280;49541;57.840;12.306;2024-01-15T23:01:57;99115.34;;;-13.46;100.00
63405;BME280;49541;57.840;12.306;2024-01-15T23:06:57;99116.97;;;-13.39;100.00
63405;BME280;49541;57.840;12.306;2024-01-15T23:11:58;99117.72;;;-12.75;100.00
63405;BME280;49541;57.840;12.306;2024-01-15T23:16:58;99124.53;;;-12.74;100.00
63405;BME280;49541;57.840;12.306;2024-01-15T23:21:59;99128.56;;;-13.15;100.00
63405;BME280;49541;57.840;12.306;2024-01-15T23:26:59;99118.69;;;-13.41;100.00
63405;BME280;49541;57.840;12.306;2024-01-15T23:32:00;99132.00;;;-13.84;100.00
63405;BME280;49541;57.840;12.306;2024-01-15T23:37:00;99132.53;;;-13.56;100.00
63405;BME280;49541;57.840;12.306;2024-01-15T23:42:00;99150.66;;;-13.08;100.00
63405;BME280;49541;57.840;12.306;2024-01-15T23:47:02;99148.53;;;-13.35;100.00
63405;BME280;49541;57.840;12.306;2024-01-15T23:52:03;99153.53;;;-14.05;100.00
63405;BME280;49541;57.840;12.306;2024-01-15T23:57:03;99166.53;;;-14.24;100.00
